createdAt,value
2022-08-29T00:00:07.897Z,25.60
2022-08-29T00:01:08.630Z,25.60
2022-08-29T00:02:09.527Z,25.58
2022-08-29T00:03:10.076Z,25.60
2022-08-29T00:04:10.894Z,25.60
2022-08-29T00:05:11.441Z,25.58
2022-08-29T00:06:12.172Z,25.58
2022-08-29T00:07:12.926Z,25.55
2022-08-29T00:08:13.766Z,25.58
2022-08-29T00:09:14.489Z,25.57
2022-08-29T00:10:15.226Z,25.55
2022-08-29T00:11:15.951Z,25.55
2022-08-29T00:12:16.681Z,25.54
2022-08-29T00:13:17.554Z,25.55
2022-08-29T00:14:23.463Z,25.54
2022-08-29T00:15:19.897Z,25.52
2022-08-29T00:16:19.653Z,25.52
2022-08-29T00:17:20.487Z,25.51
2022-08-29T00:18:21.180Z,25.51
2022-08-29T00:19:22.006Z,25.50
2022-08-29T00:20:22.923Z,25.52
2022-08-29T00:21:24.316Z,25.50
2022-08-29T00:22:24.111Z,25.50
2022-08-29T00:23:24.850Z,25.50
2022-08-29T00:24:25.638Z,25.47
2022-08-29T00:25:26.302Z,25.50
2022-08-29T00:26:27.068Z,25.46
2022-08-29T00:27:27.574Z,25.46
2022-08-29T00:28:28.313Z,25.47
2022-08-29T00:29:29.078Z,25.46
2022-08-29T00:30:29.786Z,25.46
2022-08-29T00:31:30.588Z,25.45
2022-08-29T00:32:31.350Z,25.45
2022-08-29T00:33:32.147Z,25.46
2022-08-29T00:34:32.991Z,25.45
2022-08-29T00:35:33.689Z,25.45
2022-08-29T00:36:34.477Z,25.45
2022-08-29T00:37:35.236Z,25.45
2022-08-29T00:38:36.089Z,25.43
2022-08-29T00:39:37.426Z,25.45
2022-08-29T00:40:37.861Z,25.42
2022-08-29T00:41:38.653Z,25.43
2022-08-29T00:42:39.363Z,25.43
2022-08-29T00:43:40.081Z,25.43
2022-08-29T00:44:40.892Z,25.42
2022-08-29T00:45:41.798Z,25.42
2022-08-29T00:46:42.458Z,25.42
2022-08-29T00:47:43.203Z,25.40
2022-08-29T00:48:43.928Z,25.40
2022-08-29T00:49:44.668Z,25.40
2022-08-29T00:50:45.410Z,25.40
2022-08-29T00:51:46.154Z,25.39
2022-08-29T00:52:46.869Z,25.39
2022-08-29T00:53:47.728Z,25.39
2022-08-29T00:54:48.392Z,25.39
2022-08-29T00:55:50.497Z,25.38
2022-08-29T00:56:49.933Z,25.36
2022-08-29T00:57:50.688Z,25.36
2022-08-29T00:58:51.426Z,25.36
2022-08-29T00:59:52.156Z,25.36
2022-08-29T01:00:52.930Z,25.35
2022-08-29T01:01:53.718Z,25.35
2022-08-29T01:02:54.431Z,25.35
2022-08-29T01:03:55.169Z,25.35
2022-08-29T01:04:55.920Z,25.33
2022-08-29T01:05:56.667Z,25.33
2022-08-29T01:06:57.410Z,25.33
2022-08-29T01:07:58.136Z,25.32
2022-08-29T01:08:58.875Z,25.33
2022-08-29T01:09:59.616Z,25.30
2022-08-29T01:11:00.361Z,25.32
2022-08-29T01:12:01.087Z,25.32
2022-08-29T01:13:01.818Z,25.32
2022-08-29T01:14:02.652Z,25.30
2022-08-29T01:15:03.395Z,25.30
2022-08-29T01:16:04.157Z,25.30
2022-08-29T01:17:04.858Z,25.28
2022-08-29T01:18:05.599Z,25.30
2022-08-29T01:19:06.375Z,25.28
2022-08-29T01:20:07.085Z,25.28
2022-08-29T01:21:07.843Z,25.27
2022-08-29T01:22:08.645Z,25.27
2022-08-29T01:23:09.297Z,25.28
2022-08-29T01:24:10.029Z,25.27
2022-08-29T01:25:10.686Z,25.27
2022-08-29T01:26:11.406Z,25.27
2022-08-29T01:27:12.145Z,25.27
2022-08-29T01:28:12.930Z,25.25
2022-08-29T01:29:13.615Z,25.27
2022-08-29T01:30:14.380Z,25.25
2022-08-29T01:31:15.192Z,25.25
2022-08-29T01:32:16.883Z,25.25
2022-08-29T01:33:16.603Z,25.25
2022-08-29T01:34:17.338Z,25.24
2022-08-29T01:35:18.111Z,25.25
2022-08-29T01:36:18.807Z,25.24
2022-08-29T01:37:19.537Z,25.24
2022-08-29T01:38:20.285Z,25.21
2022-08-29T01:39:20.999Z,25.23
2022-08-29T01:40:21.802Z,25.23
2022-08-29T01:41:22.509Z,25.21
2022-08-29T01:42:23.250Z,25.21
2022-08-29T01:43:23.983Z,25.21
2022-08-29T01:44:24.714Z,25.21
2022-08-29T01:45:25.534Z,25.21
2022-08-29T01:46:26.268Z,25.21
2022-08-29T01:47:26.980Z,25.21
2022-08-29T01:48:27.705Z,25.20
2022-08-29T01:49:28.450Z,25.20
2022-08-29T01:50:29.174Z,25.20
2022-08-29T01:51:29.929Z,25.18
2022-08-29T01:52:30.681Z,25.18
2022-08-29T01:53:31.517Z,25.18
2022-08-29T01:54:32.229Z,25.17
2022-08-29T01:55:32.939Z,25.17
2022-08-29T01:56:33.719Z,25.17
2022-08-29T01:57:34.416Z,25.15
2022-08-29T01:58:35.207Z,25.17
2022-08-29T01:59:35.956Z,25.15
2022-08-29T02:00:36.773Z,25.15
2022-08-29T02:01:37.576Z,25.15
2022-08-29T02:02:38.264Z,25.15
2022-08-29T02:03:38.947Z,25.14
2022-08-29T02:04:39.711Z,25.15
2022-08-29T02:05:40.451Z,25.14
2022-08-29T02:06:41.172Z,25.15
2022-08-29T02:07:41.961Z,25.14
2022-08-29T02:08:42.669Z,25.13
2022-08-29T02:09:45.563Z,25.13
2022-08-29T02:10:44.410Z,25.10
2022-08-29T02:11:45.116Z,25.13
2022-08-29T02:12:45.858Z,25.10
2022-08-29T02:13:46.592Z,25.13
2022-08-29T02:14:47.551Z,25.13
2022-08-29T02:15:48.207Z,25.13
2022-08-29T02:16:49.017Z,25.10
2022-08-29T02:17:49.745Z,25.09
2022-08-29T02:18:50.470Z,25.09
2022-08-29T02:19:51.212Z,25.10
2022-08-29T02:20:52.069Z,25.09
2022-08-29T02:21:52.764Z,25.08
2022-08-29T02:22:53.527Z,25.08
2022-08-29T02:23:54.249Z,25.08
2022-08-29T02:24:55.009Z,25.08
2022-08-29T02:25:55.751Z,25.08
2022-08-29T02:26:56.474Z,25.08
2022-08-29T02:27:57.198Z,25.08
2022-08-29T02:28:57.945Z,25.08
2022-08-29T02:29:58.686Z,25.06
2022-08-29T02:30:59.458Z,25.05
2022-08-29T02:32:00.165Z,25.05
2022-08-29T02:33:00.902Z,25.05
2022-08-29T02:34:01.703Z,25.05
2022-08-29T02:35:02.552Z,25.06
2022-08-29T02:36:03.222Z,25.05
2022-08-29T02:37:03.928Z,25.02
2022-08-29T02:38:04.682Z,25.03
2022-08-29T02:39:05.398Z,25.02
2022-08-29T02:40:06.194Z,25.02
2022-08-29T02:41:09.296Z,25.03
2022-08-29T02:42:07.441Z,25.00
2022-08-29T02:43:08.169Z,25.02
2022-08-29T02:44:08.931Z,25.00
2022-08-29T02:45:09.625Z,25.00
2022-08-29T02:46:10.515Z,25.00
2022-08-29T02:47:11.253Z,25.00
2022-08-29T02:48:11.976Z,25.00
2022-08-29T02:49:12.670Z,24.98
2022-08-29T02:50:13.301Z,24.99
2022-08-29T02:51:14.025Z,24.99
2022-08-29T02:52:14.836Z,24.99
2022-08-29T02:53:15.534Z,24.99
2022-08-29T02:54:16.267Z,24.99
2022-08-29T02:55:16.997Z,24.98
2022-08-29T02:56:17.732Z,24.98
2022-08-29T02:57:18.482Z,24.99
2022-08-29T02:58:19.200Z,24.98
2022-08-29T02:59:19.987Z,24.98
2022-08-29T03:00:20.677Z,24.98
2022-08-29T03:01:21.588Z,24.98
2022-08-29T03:02:22.385Z,24.96
2022-08-29T03:03:23.088Z,24.98
2022-08-29T03:04:23.819Z,24.95
2022-08-29T03:05:24.563Z,24.96
2022-08-29T03:06:25.296Z,24.96
2022-08-29T03:07:26.017Z,24.96
2022-08-29T03:08:26.758Z,24.95
2022-08-29T03:09:27.559Z,24.95
2022-08-29T03:10:28.275Z,24.95
2022-08-29T03:11:29.013Z,24.93
2022-08-29T03:12:29.742Z,24.93
2022-08-29T03:13:30.416Z,24.93
2022-08-29T03:14:31.133Z,24.93
2022-08-29T03:15:31.901Z,24.93
2022-08-29T03:16:32.679Z,24.91
2022-08-29T03:17:33.481Z,24.91
2022-08-29T03:18:34.161Z,24.91
2022-08-29T03:19:37.283Z,24.91
2022-08-29T03:20:35.778Z,24.91
2022-08-29T03:21:36.511Z,24.91
2022-08-29T03:22:37.282Z,24.91
2022-08-29T03:23:38.093Z,24.90
2022-08-29T03:24:38.812Z,24.88
2022-08-29T03:25:39.554Z,24.91
2022-08-29T03:26:40.334Z,24.88
2022-08-29T03:27:41.072Z,24.88
2022-08-29T03:28:41.784Z,24.88
2022-08-29T03:29:42.500Z,24.88
2022-08-29T03:30:43.270Z,24.85
2022-08-29T03:31:44.106Z,24.87
2022-08-29T03:32:44.820Z,24.87
2022-08-29T03:35:34.204Z,24.85
2022-08-29T03:36:34.946Z,24.87
2022-08-29T03:37:35.672Z,24.87
2022-08-29T03:38:36.410Z,24.85
2022-08-29T03:39:37.140Z,24.85
2022-08-29T03:40:37.962Z,24.85
2022-08-29T03:41:38.690Z,24.84
2022-08-29T03:42:39.421Z,24.85
2022-08-29T03:43:40.149Z,24.83
2022-08-29T03:44:40.880Z,24.84
2022-08-29T03:45:41.638Z,24.84
2022-08-29T03:46:42.458Z,24.84
2022-08-29T03:47:43.157Z,24.83
2022-08-29T03:48:43.912Z,24.84
2022-08-29T03:49:44.625Z,24.84
2022-08-29T03:50:45.393Z,24.84
2022-08-29T03:51:46.165Z,24.83
2022-08-29T03:52:46.886Z,24.83
2022-08-29T03:53:47.646Z,24.83
2022-08-29T03:54:48.414Z,24.81
2022-08-29T03:55:49.131Z,24.83
2022-08-29T03:56:49.870Z,24.81
2022-08-29T03:57:50.598Z,24.81
2022-08-29T03:58:53.285Z,24.81
2022-08-29T03:59:52.183Z,24.81
2022-08-29T04:00:53.000Z,24.81
2022-08-29T04:01:53.762Z,24.81
2022-08-29T04:02:54.488Z,24.80
2022-08-29T04:03:55.203Z,24.80
2022-08-29T04:04:55.931Z,24.81
2022-08-29T04:05:56.689Z,24.80
2022-08-29T04:06:57.472Z,24.80
2022-08-29T04:07:58.251Z,24.78
2022-08-29T04:08:58.943Z,24.78
2022-08-29T04:09:59.699Z,24.78
2022-08-29T04:11:00.443Z,24.78
2022-08-29T04:12:01.156Z,24.77
2022-08-29T04:13:01.911Z,24.77
2022-08-29T04:14:02.623Z,24.78
2022-08-29T04:15:03.408Z,24.77
2022-08-29T04:16:04.339Z,24.77
2022-08-29T04:17:05.027Z,24.78
2022-08-29T04:18:10.329Z,24.77
2022-08-29T04:19:06.545Z,24.77
2022-08-29T04:20:07.168Z,24.76
2022-08-29T04:21:07.909Z,24.76
2022-08-29T04:22:08.624Z,24.77
2022-08-29T04:23:09.361Z,24.77
2022-08-29T04:24:10.093Z,24.77
2022-08-29T04:25:10.835Z,24.77
2022-08-29T04:26:31.695Z,24.77
2022-08-29T04:27:13.228Z,24.77
2022-08-29T04:28:12.825Z,24.77
2022-08-29T04:29:13.629Z,24.77
2022-08-29T04:30:14.310Z,24.77
2022-08-29T04:31:15.130Z,24.77
2022-08-29T04:32:15.841Z,24.76
2022-08-29T04:33:22.697Z,24.78
2022-08-29T04:34:18.183Z,24.77
2022-08-29T04:35:17.928Z,24.77
2022-08-29T04:36:18.691Z,24.78
2022-08-29T04:37:19.420Z,24.77
2022-08-29T04:38:20.150Z,24.78
2022-08-29T04:39:20.877Z,24.77
2022-08-29T04:40:21.665Z,24.77
2022-08-29T04:41:22.335Z,24.76
2022-08-29T04:42:23.136Z,24.77
2022-08-29T04:43:23.817Z,24.76
2022-08-29T04:44:24.541Z,24.77
2022-08-29T04:45:25.271Z,24.77
2022-08-29T04:46:26.086Z,24.77
2022-08-29T04:47:26.796Z,24.77
2022-08-29T04:48:27.694Z,24.77
2022-08-29T04:49:29.346Z,24.77
2022-08-29T04:50:29.084Z,24.78
2022-08-29T04:51:30.264Z,24.77
2022-08-29T04:52:31.406Z,24.80
2022-08-29T04:53:31.157Z,24.80
2022-08-29T04:54:31.887Z,24.78
2022-08-29T04:55:32.375Z,24.77
2022-08-29T04:56:33.118Z,24.80
2022-08-29T04:57:33.956Z,24.80
2022-08-29T04:58:34.729Z,24.80
2022-08-29T04:59:35.750Z,24.78
2022-08-29T05:00:36.291Z,24.80
2022-08-29T05:01:37.293Z,24.80
2022-08-29T05:02:38.029Z,24.81
2022-08-29T05:03:38.704Z,24.80
2022-08-29T05:04:39.441Z,24.81
2022-08-29T05:05:40.234Z,24.80
2022-08-29T05:06:41.356Z,24.83
2022-08-29T05:07:41.665Z,24.83
2022-08-29T05:08:42.390Z,24.83
2022-08-29T05:09:43.158Z,24.83
2022-08-29T05:10:43.904Z,24.84
2022-08-29T05:11:44.658Z,24.84
2022-08-29T05:12:45.389Z,24.84
2022-08-29T05:13:46.237Z,24.84
2022-08-29T05:14:46.899Z,24.85
2022-08-29T05:15:47.685Z,24.85
2022-08-29T05:16:48.380Z,24.85
2022-08-29T05:17:49.102Z,24.87
2022-08-29T05:18:49.930Z,24.87
2022-08-29T05:19:50.831Z,24.88
2022-08-29T05:20:51.558Z,24.88
2022-08-29T05:21:52.329Z,24.88
2022-08-29T05:22:52.776Z,24.91
2022-08-29T05:23:53.516Z,24.91
2022-08-29T05:24:54.245Z,24.93
2022-08-29T05:25:54.992Z,24.93
2022-08-29T05:26:56.800Z,24.93
2022-08-29T05:27:56.887Z,24.95
2022-08-29T05:28:58.027Z,24.95
2022-08-29T05:29:57.762Z,24.96
2022-08-29T05:30:58.753Z,24.98
2022-08-29T05:31:59.442Z,24.98
2022-08-29T05:33:00.185Z,25.00
2022-08-29T05:34:00.907Z,25.00
2022-08-29T05:35:02.534Z,25.02
2022-08-29T05:36:02.267Z,25.03
2022-08-29T05:37:03.008Z,25.05
2022-08-29T05:38:08.687Z,25.05
2022-08-29T05:39:05.358Z,25.06
2022-08-29T05:40:05.197Z,25.06
2022-08-29T05:41:05.956Z,25.09
2022-08-29T05:42:06.678Z,25.09
2022-08-29T05:43:07.562Z,25.09
2022-08-29T05:44:08.259Z,25.10
2022-08-29T05:45:08.981Z,25.10
2022-08-29T05:46:09.798Z,25.13
2022-08-29T05:47:10.526Z,25.15
2022-08-29T05:48:11.385Z,25.15
2022-08-29T05:49:12.081Z,25.15
2022-08-29T05:50:12.794Z,25.15
2022-08-29T05:51:13.521Z,25.20
2022-08-29T05:52:14.267Z,25.20
2022-08-29T05:53:15.108Z,25.20
2022-08-29T05:54:15.960Z,25.23
2022-08-29T05:55:16.697Z,25.23
2022-08-29T05:56:17.479Z,25.23
2022-08-29T05:57:19.309Z,25.24
2022-08-29T05:58:19.211Z,25.24
2022-08-29T05:59:19.983Z,25.24
2022-08-29T06:00:20.701Z,25.27
2022-08-29T06:01:21.485Z,25.28
2022-08-29T06:02:22.546Z,25.25
2022-08-29T06:03:23.379Z,25.28
2022-08-29T06:04:24.113Z,25.30
2022-08-29T06:05:24.833Z,25.30
2022-08-29T06:06:26.234Z,25.32
2022-08-29T06:07:26.484Z,25.35
2022-08-29T06:08:27.296Z,25.36
2022-08-29T06:09:27.970Z,25.36
2022-08-29T06:10:28.727Z,25.36
2022-08-29T06:11:29.499Z,25.38
2022-08-29T06:12:30.269Z,25.38
2022-08-29T06:13:30.980Z,25.40
2022-08-29T06:14:32.862Z,25.40
2022-08-29T06:15:32.756Z,25.40
2022-08-29T06:16:33.449Z,25.45
2022-08-29T06:17:34.199Z,25.43
2022-08-29T06:18:35.723Z,25.46
2022-08-29T06:19:35.796Z,25.47
2022-08-29T06:20:36.577Z,25.50
2022-08-29T06:21:37.349Z,25.51
2022-08-29T06:22:40.320Z,25.52
2022-08-29T06:23:38.779Z,25.51
2022-08-29T06:24:39.512Z,25.52
2022-08-29T06:25:40.605Z,25.55
2022-08-29T06:26:40.870Z,25.55
2022-08-29T06:27:41.743Z,25.57
2022-08-29T06:28:42.436Z,25.58
2022-08-29T06:29:43.913Z,25.58
2022-08-29T06:30:43.960Z,25.60
2022-08-29T06:31:44.645Z,25.61
2022-08-29T06:32:45.411Z,25.62
2022-08-29T06:33:46.151Z,25.64
2022-08-29T06:34:46.880Z,25.64
2022-08-29T06:35:47.651Z,25.67
2022-08-29T06:36:48.472Z,25.69
2022-08-29T06:37:49.269Z,25.70
2022-08-29T06:38:50.016Z,25.72
2022-08-29T06:39:50.740Z,25.73
2022-08-29T06:40:51.484Z,25.76
2022-08-29T06:41:52.365Z,25.76
2022-08-29T06:42:53.041Z,25.80
2022-08-29T06:43:54.021Z,25.82
2022-08-29T06:44:54.758Z,25.82
2022-08-29T06:45:55.701Z,25.85
2022-08-29T06:46:56.401Z,25.87
2022-08-29T06:47:57.268Z,25.88
2022-08-29T06:48:57.964Z,25.91
2022-08-29T06:49:58.704Z,25.92
2022-08-29T06:50:59.489Z,25.94
2022-08-29T06:52:00.219Z,25.97
2022-08-29T06:53:26.027Z,25.98
2022-08-29T06:54:02.592Z,26.01
2022-08-29T06:55:02.402Z,26.02
2022-08-29T06:56:03.180Z,26.05
2022-08-29T06:57:03.952Z,25.98
2022-08-29T06:58:04.687Z,25.95
2022-08-29T06:59:06.272Z,25.94
2022-08-29T07:00:12.392Z,25.91
2022-08-29T07:01:07.673Z,25.92
2022-08-29T07:02:07.416Z,25.92
2022-08-29T07:03:08.218Z,25.91
2022-08-29T07:04:14.404Z,25.91
2022-08-29T07:05:10.556Z,25.92
2022-08-29T07:06:10.334Z,25.95
2022-08-29T07:07:11.076Z,25.97
2022-08-29T07:08:11.827Z,25.98
2022-08-29T07:09:12.550Z,25.99
2022-08-29T07:10:13.362Z,26.01
2022-08-29T07:11:14.226Z,26.01
2022-08-29T07:12:15.002Z,26.02
2022-08-29T07:13:15.843Z,26.05
2022-08-29T07:14:16.643Z,26.05
2022-08-29T07:15:17.375Z,26.05
2022-08-29T07:16:18.222Z,26.06
2022-08-29T07:17:25.829Z,26.05
2022-08-29T07:18:20.650Z,26.06
2022-08-29T07:19:20.507Z,26.06
2022-08-29T07:20:21.222Z,26.07
2022-08-29T07:21:22.000Z,26.07
2022-08-29T07:22:22.802Z,26.06
2022-08-29T07:23:23.466Z,25.95
2022-08-29T07:24:24.988Z,25.90
2022-08-29T07:25:24.814Z,25.83
2022-08-29T07:26:25.516Z,25.76
2022-08-29T07:27:26.235Z,25.67
2022-08-29T07:28:27.143Z,25.58
2022-08-29T07:29:27.815Z,25.52
2022-08-29T07:30:28.623Z,25.45
2022-08-29T07:31:30.935Z,25.36
2022-08-29T07:32:30.025Z,25.33
2022-08-29T07:33:30.863Z,25.30
2022-08-29T07:34:31.551Z,25.27
2022-08-29T07:35:32.287Z,25.27
2022-08-29T07:36:34.292Z,25.24
2022-08-29T07:37:33.975Z,25.21
2022-08-29T07:38:34.775Z,25.20
2022-08-29T07:39:35.453Z,25.18
2022-08-29T07:40:36.211Z,25.15
2022-08-29T07:41:36.955Z,25.06
2022-08-29T07:42:38.642Z,25.03
2022-08-29T07:43:38.456Z,25.00
2022-08-29T07:44:39.163Z,24.98
2022-08-29T07:45:40.014Z,24.91
2022-08-29T07:46:40.717Z,24.87
2022-08-29T07:47:41.458Z,24.77
2022-08-29T07:48:42.230Z,24.49
2022-08-29T07:49:42.959Z,24.39
2022-08-29T07:50:43.682Z,24.28
2022-08-29T07:51:44.848Z,24.27
2022-08-29T07:52:45.163Z,24.27
2022-08-29T07:53:45.941Z,24.30
2022-08-29T07:56:37.932Z,24.34
2022-08-29T07:57:36.999Z,24.35
2022-08-29T07:58:36.526Z,24.37
2022-08-29T07:59:37.262Z,24.39
2022-08-29T08:00:37.989Z,24.40
2022-08-29T08:01:38.825Z,24.37
2022-08-29T08:02:39.585Z,24.35
2022-08-29T08:03:40.293Z,24.37
2022-08-29T08:04:41.080Z,24.42
2022-08-29T08:05:42.048Z,24.45
2022-08-29T08:06:42.987Z,24.42
2022-08-29T08:07:43.791Z,24.37
2022-08-29T08:08:44.518Z,24.34
2022-08-29T08:09:45.275Z,24.24
2022-08-29T08:10:50.077Z,24.20
2022-08-29T08:11:47.614Z,24.20
2022-08-29T08:12:47.426Z,24.20
2022-08-29T08:13:48.157Z,24.22
2022-08-29T08:14:48.920Z,24.28
2022-08-29T08:15:49.595Z,24.31
2022-08-29T08:16:50.413Z,24.31
2022-08-29T08:17:51.124Z,24.35
2022-08-29T08:18:51.934Z,24.40
2022-08-29T08:19:52.619Z,24.37
2022-08-29T08:20:53.366Z,24.39
2022-08-29T08:21:54.211Z,24.43
2022-08-29T08:22:54.879Z,24.49
2022-08-29T08:23:55.667Z,24.52
2022-08-29T08:24:56.394Z,24.53
2022-08-29T08:25:57.132Z,24.47
2022-08-29T08:26:57.910Z,24.39
2022-08-29T08:27:58.654Z,24.37
2022-08-29T08:28:59.410Z,24.42
2022-08-29T08:30:00.233Z,24.45
2022-08-29T08:31:05.899Z,24.46
2022-08-29T08:32:01.662Z,24.55
2022-08-29T08:33:02.404Z,24.64
2022-08-29T08:34:03.145Z,24.67
2022-08-29T08:35:03.922Z,24.73
2022-08-29T08:36:04.689Z,24.80
2022-08-29T08:37:05.496Z,24.84
2022-08-29T08:38:06.201Z,24.83
2022-08-29T08:39:06.963Z,24.78
2022-08-29T08:40:07.731Z,24.53
2022-08-29T08:41:08.524Z,24.22
2022-08-29T08:42:09.639Z,23.90
2022-08-29T08:43:10.974Z,23.61
2022-08-29T08:44:10.814Z,23.38
2022-08-29T08:45:11.566Z,23.25
2022-08-29T08:46:12.337Z,23.07
2022-08-29T08:47:13.026Z,22.88
2022-08-29T08:48:13.820Z,22.79
2022-08-29T08:49:14.597Z,22.80
2022-08-29T08:50:15.828Z,22.82
2022-08-29T08:51:16.224Z,22.91
2022-08-29T08:52:16.977Z,22.97
2022-08-29T08:53:17.652Z,23.07
2022-08-29T08:54:18.428Z,23.17
2022-08-29T08:55:19.166Z,23.22
2022-08-29T08:56:19.932Z,23.27
2022-08-29T08:57:20.689Z,23.31
2022-08-29T08:58:28.739Z,23.27
2022-08-29T08:59:23.034Z,23.15
2022-08-29T09:00:22.785Z,23.09
2022-08-29T09:01:23.645Z,23.10
2022-08-29T09:02:24.391Z,23.16
2022-08-29T09:03:25.084Z,23.23
2022-08-29T09:04:27.243Z,23.35
2022-08-29T09:05:26.472Z,23.47
2022-08-29T09:06:27.190Z,23.58
2022-08-29T09:07:27.930Z,23.68
2022-08-29T09:08:28.693Z,23.76
2022-08-29T09:09:29.531Z,23.84
2022-08-29T09:10:30.308Z,23.94
2022-08-29T09:11:31.011Z,23.88
2022-08-29T09:12:31.774Z,23.83
2022-08-29T09:13:32.575Z,23.80
2022-08-29T09:14:33.285Z,23.83
2022-08-29T09:15:34.041Z,23.85
2022-08-29T09:16:34.891Z,23.79
2022-08-29T09:17:36.393Z,23.68
2022-08-29T09:18:36.263Z,23.54
2022-08-29T09:19:37.160Z,23.47
2022-08-29T09:20:37.857Z,23.47
2022-08-29T09:21:41.417Z,23.40
2022-08-29T09:22:39.303Z,23.40
2022-08-29T09:23:40.055Z,23.38
2022-08-29T09:24:40.792Z,23.38
2022-08-29T09:25:41.557Z,23.35
2022-08-29T09:26:42.278Z,23.38
2022-08-29T09:27:43.004Z,23.46
2022-08-29T09:28:43.756Z,23.54
2022-08-29T09:29:44.485Z,23.58
2022-08-29T09:30:45.213Z,23.68
2022-08-29T09:31:46.054Z,23.76
2022-08-29T09:32:47.019Z,23.79
2022-08-29T09:33:47.699Z,23.87
2022-08-29T09:35:07.933Z,23.91
2022-08-29T09:35:50.224Z,23.88
2022-08-29T09:36:50.004Z,23.84
2022-08-29T09:37:50.890Z,23.85
2022-08-29T09:38:51.595Z,23.85
2022-08-29T09:39:52.311Z,23.73
2022-08-29T09:40:53.092Z,23.72
2022-08-29T09:41:53.814Z,23.72
2022-08-29T09:42:54.552Z,23.73
2022-08-29T09:43:55.277Z,23.69
2022-08-29T09:44:56.040Z,23.75
2022-08-29T09:45:56.897Z,23.85
2022-08-29T09:46:57.360Z,23.94
2022-08-29T09:47:58.207Z,24.03
2022-08-29T09:48:59.009Z,24.12
2022-08-29T09:49:59.800Z,24.21
2022-08-29T09:51:00.560Z,24.31
2022-08-29T09:52:01.349Z,24.37
2022-08-29T09:53:02.028Z,24.45
2022-08-29T09:54:02.997Z,24.50
2022-08-29T09:55:03.754Z,24.53
2022-08-29T09:56:04.503Z,24.58
2022-08-29T09:57:05.472Z,24.57
2022-08-29T09:58:06.171Z,24.50
2022-08-29T09:59:07.365Z,24.43
2022-08-29T10:00:07.707Z,24.40
2022-08-29T10:01:08.741Z,24.43
2022-08-29T10:02:08.937Z,24.47
2022-08-29T10:03:09.611Z,24.53
2022-08-29T10:04:10.452Z,24.60
2022-08-29T10:05:13.276Z,24.68
2022-08-29T10:06:12.130Z,24.76
2022-08-29T10:07:12.920Z,24.84
2022-08-29T10:08:13.743Z,24.95
2022-08-29T10:09:14.433Z,25.03
2022-08-29T10:10:15.168Z,25.10
2022-08-29T10:11:16.000Z,25.21
2022-08-29T10:12:16.752Z,25.30
2022-08-29T10:13:17.637Z,25.40
2022-08-29T10:14:18.353Z,25.47
2022-08-29T10:15:39.537Z,25.55
2022-08-29T10:16:20.837Z,25.62
2022-08-29T10:17:20.496Z,25.70
2022-08-29T10:18:21.300Z,25.77
2022-08-29T10:19:22.147Z,25.83
2022-08-29T10:20:22.942Z,25.90
2022-08-29T10:21:23.866Z,25.95
2022-08-29T10:22:24.564Z,25.98
2022-08-29T10:23:25.420Z,26.07
2022-08-29T10:24:26.175Z,26.10
2022-08-29T10:25:26.868Z,26.17
2022-08-29T10:26:27.847Z,26.21
2022-08-29T10:27:28.538Z,26.26
2022-08-29T10:28:29.269Z,26.30
2022-08-29T10:29:31.905Z,26.32
2022-08-29T10:30:30.810Z,26.37
2022-08-29T10:31:31.686Z,26.39
2022-08-29T10:32:32.419Z,26.43
2022-08-29T10:33:33.164Z,26.48
2022-08-29T10:34:34.122Z,26.50
2022-08-29T10:35:34.806Z,26.52
2022-08-29T10:36:35.650Z,26.57
2022-08-29T10:37:36.304Z,26.62
2022-08-29T10:38:37.085Z,26.65
2022-08-29T10:39:37.820Z,26.67
2022-08-29T10:40:38.575Z,26.72
2022-08-29T10:41:39.075Z,26.73
2022-08-29T10:42:39.839Z,26.75
2022-08-29T10:43:40.614Z,26.75
2022-08-29T10:44:41.461Z,26.81
2022-08-29T10:45:42.273Z,26.84
2022-08-29T10:46:43.023Z,26.87
2022-08-29T10:47:43.947Z,26.89
2022-08-29T10:48:44.537Z,26.91
2022-08-29T10:49:45.354Z,26.94
2022-08-29T10:50:46.335Z,26.95
2022-08-29T10:51:46.596Z,26.99
2022-08-29T10:52:47.327Z,27.02
2022-08-29T10:53:48.055Z,27.03
2022-08-29T10:54:48.797Z,27.06
2022-08-29T10:55:49.637Z,27.09
2022-08-29T10:56:50.350Z,27.13
2022-08-29T10:57:51.239Z,27.18
2022-08-29T10:58:51.940Z,27.22
2022-08-29T10:59:52.698Z,27.28
2022-08-29T11:00:53.574Z,27.32
2022-08-29T11:01:54.241Z,27.36
2022-08-29T11:02:55.047Z,27.39
2022-08-29T11:03:55.848Z,27.44
2022-08-29T11:04:56.635Z,27.46
2022-08-29T11:05:57.824Z,27.44
2022-08-29T11:06:59.008Z,27.36
2022-08-29T11:07:59.907Z,27.25
2022-08-29T11:08:59.639Z,27.10
2022-08-29T11:10:00.390Z,27.03
2022-08-29T11:11:01.604Z,27.02
2022-08-29T11:12:01.863Z,27.06
2022-08-29T11:13:02.593Z,27.06
2022-08-29T11:14:05.802Z,26.99
2022-08-29T11:15:05.389Z,26.95
2022-08-29T11:16:05.148Z,26.94
2022-08-29T11:17:05.839Z,26.91
2022-08-29T11:18:06.611Z,26.89
2022-08-29T11:19:07.383Z,26.88
2022-08-29T11:20:08.138Z,26.88
2022-08-29T11:21:08.881Z,26.91
2022-08-29T11:22:09.668Z,27.00
2022-08-29T11:23:10.381Z,27.07
2022-08-29T11:24:11.206Z,27.17
2022-08-29T11:25:11.976Z,27.24
2022-08-29T11:26:12.708Z,27.28
2022-08-29T11:27:13.447Z,27.31
2022-08-29T11:28:14.344Z,27.31
2022-08-29T11:29:15.101Z,27.34
2022-08-29T11:30:15.960Z,27.32
2022-08-29T11:31:16.795Z,27.29
2022-08-29T11:32:17.477Z,27.25
2022-08-29T11:33:18.203Z,27.17
2022-08-29T11:34:19.846Z,27.10
2022-08-29T11:35:20.816Z,27.13
2022-08-29T11:36:20.536Z,27.12
2022-08-29T11:37:21.474Z,27.12
2022-08-29T11:38:22.410Z,27.10
2022-08-29T11:39:23.296Z,27.12
2022-08-29T11:40:47.194Z,27.09
2022-08-29T11:41:26.722Z,27.12
2022-08-29T11:43:27.220Z,27.18
2022-08-29T11:44:26.977Z,27.19
2022-08-29T11:45:35.366Z,27.24
2022-08-29T11:46:29.427Z,27.25
2022-08-29T11:47:29.142Z,27.25
2022-08-29T11:48:29.613Z,27.24
2022-08-29T11:49:30.374Z,27.24
2022-08-29T11:50:31.124Z,27.19
2022-08-29T11:51:31.866Z,27.21
2022-08-29T11:52:32.649Z,27.24
2022-08-29T11:53:33.469Z,27.24
2022-08-29T11:54:35.137Z,27.27
2022-08-29T11:55:34.931Z,27.29
2022-08-29T11:56:35.655Z,27.31
2022-08-29T11:57:36.418Z,27.36
2022-08-29T11:58:37.178Z,27.31
2022-08-29T11:59:37.877Z,27.31
2022-08-29T12:00:38.983Z,27.29
2022-08-29T12:01:39.229Z,27.27
2022-08-29T12:02:39.974Z,27.25
2022-08-29T12:03:40.871Z,27.18
2022-08-29T12:04:41.625Z,27.14
2022-08-29T12:05:42.313Z,27.10
2022-08-29T12:06:43.076Z,27.07
2022-08-29T12:07:43.779Z,27.06
2022-08-29T12:08:44.511Z,27.02
2022-08-29T12:09:45.269Z,26.99
2022-08-29T12:10:45.992Z,26.99
2022-08-29T12:11:46.742Z,26.94
2022-08-29T12:12:47.502Z,26.94
2022-08-29T12:13:48.234Z,26.92
2022-08-29T12:14:48.986Z,26.87
2022-08-29T12:15:49.698Z,26.82
2022-08-29T12:16:50.481Z,26.82
2022-08-29T12:18:02.042Z,26.84
2022-08-29T12:18:52.870Z,26.85
2022-08-29T12:19:52.585Z,26.85
2022-08-29T12:20:53.321Z,26.84
2022-08-29T12:21:54.087Z,26.80
2022-08-29T12:22:54.775Z,26.73
2022-08-29T12:23:55.519Z,26.73
2022-08-29T12:24:57.950Z,26.75
2022-08-29T12:26:21.561Z,26.75
2022-08-29T12:26:58.763Z,26.77
2022-08-29T12:27:58.548Z,26.80
2022-08-29T12:28:59.271Z,26.81
2022-08-29T12:29:59.977Z,26.87
2022-08-29T12:31:01.284Z,26.88
2022-08-29T12:33:50.258Z,26.94
2022-08-29T12:36:39.585Z,26.85
2022-08-29T12:37:41.210Z,26.84
2022-08-29T12:38:42.462Z,26.87
2022-08-29T12:39:41.868Z,26.87
2022-08-29T12:40:42.687Z,26.88
2022-08-29T12:41:43.484Z,26.92
2022-08-29T12:42:44.203Z,26.97
2022-08-29T12:43:44.959Z,27.03
2022-08-29T12:44:45.721Z,27.07
2022-08-29T12:45:46.400Z,27.14
2022-08-29T12:46:47.193Z,27.22
2022-08-29T12:47:47.893Z,27.19
2022-08-29T12:48:57.627Z,27.25
2022-08-29T12:49:50.288Z,27.28
2022-08-29T12:50:49.998Z,27.32
2022-08-29T12:51:50.728Z,27.37
2022-08-29T12:52:51.523Z,27.46
2022-08-29T12:53:52.269Z,27.50
2022-08-29T12:54:56.266Z,27.59
2022-08-29T12:55:53.800Z,27.57
2022-08-29T12:56:54.773Z,27.60
2022-08-29T12:57:55.484Z,27.77
2022-08-29T12:58:56.219Z,27.99
2022-08-29T12:59:56.944Z,28.14
2022-08-29T13:00:57.754Z,28.31
2022-08-29T13:01:58.528Z,28.55
2022-08-29T13:02:59.439Z,28.76
2022-08-29T13:04:00.231Z,29.04
2022-08-29T13:05:01.232Z,28.98
2022-08-29T13:06:01.960Z,29.39
2022-08-29T13:07:02.690Z,29.79
2022-08-29T13:08:03.525Z,30.11
2022-08-29T13:09:04.260Z,30.32
2022-08-29T13:10:05.017Z,30.38